sensor_id;sensor_type;location;lat;lon;timestamp;pressure;altitude;pressure_sealevel;temperature;humidity
72587;BME280;60621;49.576;11.024;2023-04-01T00:00:48;96876.13;;;9.41;72.46
72587;BME280;60621;49.576;11.024;2023-04-01T00:01:50;96876.16;;;9.37;72.93
72587;BME280;60621;49.576;11.024;2023-04-01T00:02:51;96873.13;;;9.39;72.69
72587;BME280;60621;49.576;11.024;2023-04-01T00:03:53;96872.72;;;9.47;72.74
72587;BME280;60621;49.576;11.024;2023-04-01T00:04:55;96873.13;;;9.42;72.57
72587;BME280;60621;49.576;11.024;2023-04-01T00:05:58;96869.34;;;9.43;72.85
72587;BME280;60621;49.576;11.024;2023-04-01T00:07:00;96873.13;;;9.49;72.46
72587;BME280;60621;49.576;11.024;2023-04-01T00:08:03;96867.47;;;9.55;72.24
72587;BME280;60621;49.576;11.024;2023-04-01T00:09:04;96867.06;;;9.53;72.47
72587;BME280;60621;49.576;11.024;2023-04-01T00:10:07;96863.69;;;9.52;72.49
72587;BME280;60621;49.576;11.024;2023-04-01T00:11:09;96870.09;;;9.51;72.21
72587;BME280;60621;49.576;11.024;2023-04-01T00:12:11;96875.72;;;9.57;72.03
72587;BME280;60621;49.576;11.024;2023-04-01T00:13:13;96868.91;;;9.63;71.99
72587;BME280;60621;49.576;11.024;2023-04-01T00:14:14;96870.03;;;9.62;72.02
72587;BME280;60621;49.576;11.024;2023-04-01T00:15:16;96868.22;;;9.48;72.24
72587;BME280;60621;49.576;11.024;2023-04-01T00:16:17;96859.56;;;9.47;72.56
72587;BME280;60621;49.576;11.024;2023-04-01T00:17:22;96861.44;;;9.51;72.58
72587;BME280;60621;49.576;11.024;2023-04-01T00:18:24;96867.41;;;9.58;72.43
72587;BME280;60621;49.576;11.024;2023-04-01T00:19:26;96862.16;;;9.62;72.32
72587;BME280;60621;49.576;11.024;2023-04-01T00:20:28;96862.16;;;9.62;72.44
72587;BME280;60621;49.576;11.024;2023-04-01T00:21:30;96862.56;;;9.53;72.57
72587;BME280;60621;49.576;11.024;2023-04-01T00:22:31;96864.44;;;9.53;72.33
72587;BME280;60621;49.576;11.024;2023-04-01T00:23:33;96860.31;;;9.52;72.67
72587;BME280;60621;49.576;11.024;2023-04-01T00:24:35;96861.41;;;9.61;72.71
72587;BME280;60621;49.576;11.024;2023-04-01T00:25:36;96867.81;;;9.60;72.40
72587;BME280;60621;49.576;11.024;2023-04-01T00:26:38;96863.28;;;9.61;72.43
72587;BME280;60621;49.576;11.024;2023-04-01T00:27:40;96866.69;;;9.58;72.48
72587;BME280;60621;49.576;11.024;2023-04-01T00:28:41;96867.03;;;9.63;72.83
72587;BME280;60621;49.576;11.024;2023-04-01T00:29:44;96863.63;;;9.66;72.78
72587;BME280;60621;49.576;11.024;2023-04-01T00:30:46;96872.69;;;9.58;72.25
72587;BME280;60621;49.576;11.024;2023-04-01T00:31:48;96867.06;;;9.60;72.72
72587;BME280;60621;49.576;11.024;2023-04-01T00:32:53;96867.00;;;9.67;72.27
72587;BME280;60621;49.576;11.024;2023-04-01T00:33:55;96877.53;;;9.70;72.55
72587;BME280;60621;49.576;11.024;2023-04-01T00:34:57;96862.09;;;9.76;72.11
72587;BME280;60621;49.576;11.024;2023-04-01T00:36:10;96865.88;;;9.68;72.44
72587;BME280;60621;49.576;11.024;2023-04-01T00:37:11;96858.78;;;9.58;71.92
72587;BME280;60621;49.576;11.024;2023-04-01T00:38:13;96861.03;;;9.59;72.43
72587;BME280;60621;49.576;11.024;2023-04-01T00:39:15;96864.38;;;9.63;72.39
72587;BME280;60621;49.576;11.024;2023-04-01T00:41:29;96865.13;;;9.74;72.02
72587;BME280;60621;49.576;11.024;2023-04-01T00:42:32;96860.94;;;9.77;71.90
72587;BME280;60621;49.576;11.024;2023-04-01T00:43:33;96866.22;;;9.81;71.70
72587;BME280;60621;49.576;11.024;2023-04-01T00:44:38;96871.47;;;9.84;71.52
72587;BME280;60621;49.576;11.024;2023-04-01T00:45:42;96862.03;;;9.87;71.41
72587;BME280;60621;49.576;11.024;2023-04-01T00:46:43;96859.00;;;9.92;71.13
72587;BME280;60621;49.576;11.024;2023-04-01T00:47:45;96866.16;;;9.91;70.97
72587;BME280;60621;49.576;11.024;2023-04-01T00:48:51;96863.91;;;9.90;70.83
72587;BME280;60621;49.576;11.024;2023-04-01T00:49:54;96863.16;;;9.89;70.92
72587;BME280;60621;49.576;11.024;2023-04-01T00:52:04;96862.75;;;9.94;70.77
72587;BME280;60621;49.576;11.024;2023-04-01T00:53:08;96866.91;;;9.92;71.19
72587;BME280;60621;49.576;11.024;2023-04-01T00:54:10;96869.94;;;9.90;71.18
72587;BME280;60621;49.576;11.024;2023-04-01T00:55:13;96874.44;;;9.97;71.38
72587;BME280;60621;49.576;11.024;2023-04-01T00:56:19;96872.16;;;9.95;71.23
72587;BME280;60621;49.576;11.024;2023-04-01T00:57:35;96874.44;;;9.93;71.07
72587;BME280;60621;49.576;11.024;2023-04-01T00:58:42;96871.03;;;9.96;71.19
72587;BME280;60621;49.576;11.024;2023-04-01T00:59:48;96862.38;;;9.96;70.73
72587;BME280;60621;49.576;11.024;2023-04-01T01:00:51;96866.53;;;9.97;70.70
72587;BME280;60621;49.576;11.024;2023-04-01T01:01:53;96866.50;;;10.00;70.27
72587;BME280;60621;49.576;11.024;2023-04-01T01:02:55;96867.63;;;10.03;70.29
72587;BME280;60621;49.576;11.024;2023-04-01T01:03:56;96877.81;;;9.94;70.53
72587;BME280;60621;49.576;11.024;2023-04-01T01:04:58;96873.31;;;9.91;70.57
72587;BME280;60621;49.576;11.024;2023-04-01T01:06:08;96865.03;;;9.92;70.08
72587;BME280;60621;49.576;11.024;2023-04-01T01:10:30;96868.44;;;9.89;70.23
72587;BME280;60621;49.576;11.024;2023-04-01T01:15:20;96872.50;;;10.01;70.10
72587;BME280;60621;49.576;11.024;2023-04-01T01:16:37;96871.75;;;10.00;69.71
72587;BME280;60621;49.576;11.024;2023-04-01T01:19:07;96863.44;;;10.06;68.81
72587;BME280;60621;49.576;11.024;2023-04-01T01:22:26;96864.97;;;10.07;69.04
72587;BME280;60621;49.576;11.024;2023-04-01T01:29:28;96867.97;;;10.01;69.66
72587;BME280;60621;49.576;11.024;2023-04-01T01:30:49;96869.53;;;9.95;69.37
72587;BME280;60621;49.576;11.024;2023-04-01T01:31:58;96872.16;;;9.92;69.76
72587;BME280;60621;49.576;11.024;2023-04-01T01:36:02;96866.09;;;10.06;69.36
72587;BME280;60621;49.576;11.024;2023-04-01T01:37:11;96861.56;;;10.06;69.39
72587;BME280;60621;49.576;11.024;2023-04-01T01:38:24;96860.47;;;10.00;69.11
72587;BME280;60621;49.576;11.024;2023-04-01T01:39:30;96861.22;;;10.00;69.32
72587;BME280;60621;49.576;11.024;2023-04-01T01:40:34;96854.06;;;10.01;69.55
72587;BME280;60621;49.576;11.024;2023-04-01T01:41:39;96864.19;;;10.10;69.62
72587;BME280;60621;49.576;11.024;2023-04-01T01:42:47;96852.13;;;10.12;69.55
72587;BME280;60621;49.576;11.024;2023-04-01T01:43:50;96851.75;;;10.14;69.43
72587;BME280;60621;49.576;11.024;2023-04-01T01:44:55;96859.66;;;10.10;69.03
72587;BME280;60621;49.576;11.024;2023-04-01T01:46:02;96857.03;;;10.10;69.42
72587;BME280;60621;49.576;11.024;2023-04-01T01:47:06;96853.97;;;10.15;69.13
72587;BME280;60621;49.576;11.024;2023-04-01T01:48:10;96853.28;;;10.08;69.12
72587;BME280;60621;49.576;11.024;2023-04-01T01:49:13;96853.72;;;9.95;69.23
72587;BME280;60621;49.576;11.024;2023-04-01T01:50:16;96855.59;;;9.98;69.24
72587;BME280;60621;49.576;11.024;2023-04-01T01:51:20;96857.50;;;9.94;69.50
72587;BME280;60621;49.576;11.024;2023-04-01T01:52:23;96852.97;;;9.98;69.86
72587;BME280;60621;49.576;11.024;2023-04-01T01:53:25;96851.44;;;10.01;69.60
72587;BME280;60621;49.576;11.024;2023-04-01T01:54:26;96854.78;;;10.05;69.23
72587;BME280;60621;49.576;11.024;2023-04-01T01:55:30;96857.44;;;10.01;68.99
72587;BME280;60621;49.576;11.024;2023-04-01T01:56:34;96852.94;;;10.02;69.36
72587;BME280;60621;49.576;11.024;2023-04-01T01:57:37;96850.72;;;9.97;68.72
72587;BME280;60621;49.576;11.024;2023-04-01T01:58:43;96851.88;;;9.92;69.05
72587;BME280;60621;49.576;11.024;2023-04-01T01:59:47;96843.97;;;9.92;69.00
72587;BME280;60621;49.576;11.024;2023-04-01T02:00:54;96842.84;;;9.86;68.75
72587;BME280;60621;49.576;11.024;2023-04-01T02:01:56;96850.00;;;9.93;68.97
72587;BME280;60621;49.576;11.024;2023-04-01T02:02:58;96845.47;;;9.97;68.63
72587;BME280;60621;49.576;11.024;2023-04-01T02:04:02;96842.84;;;9.93;68.70
72587;BME280;60621;49.576;11.024;2023-04-01T02:05:04;96836.81;;;9.93;68.61
72587;BME280;60621;49.576;11.024;2023-04-01T02:06:07;96835.28;;;9.95;68.56
72587;BME280;60621;49.576;11.024;2023-04-01T02:07:31;96846.56;;;9.96;68.37
72587;BME280;60621;49.576;11.024;2023-04-01T02:08:42;96845.41;;;10.00;67.81
72587;BME280;60621;49.576;11.024;2023-04-01T02:09:46;96835.25;;;10.03;67.60
72587;BME280;60621;49.576;11.024;2023-04-01T02:11:04;96839.72;;;10.09;67.56
72587;BME280;60621;49.576;11.024;2023-04-01T02:12:12;96848.38;;;10.06;67.80
72587;BME280;60621;49.576;11.024;2023-04-01T02:13:28;96837.91;;;9.99;67.19
72587;BME280;60621;49.576;11.024;2023-04-01T02:14:37;96831.91;;;9.91;66.84
72587;BME280;60621;49.576;11.024;2023-04-01T02:15:45;96843.59;;;9.87;67.06
72587;BME280;60621;49.576;11.024;2023-04-01T02:17:01;96831.19;;;9.87;66.68
72587;BME280;60621;49.576;11.024;2023-04-01T02:18:05;96824.75;;;9.92;66.79
72587;BME280;60621;49.576;11.024;2023-04-01T02:19:07;96835.69;;;9.90;66.93
72587;BME280;60621;49.576;11.024;2023-04-01T02:20:14;96825.88;;;9.94;66.65
72587;BME280;60621;49.576;11.024;2023-04-01T02:21:18;96833.78;;;9.94;66.76
72587;BME280;60621;49.576;11.024;2023-04-01T02:22:31;96828.53;;;9.91;67.02
72587;BME280;60621;49.576;11.024;2023-04-01T02:23:36;96844.69;;;9.96;67.03
72587;BME280;60621;49.576;11.024;2023-04-01T02:24:41;96837.16;;;9.95;66.84
72587;BME280;60621;49.576;11.024;2023-04-01T02:25:45;96830.00;;;9.95;66.71
72587;BME280;60621;49.576;11.024;2023-04-01T02:26:50;96843.56;;;9.94;67.41
72587;BME280;60621;49.576;11.024;2023-04-01T02:27:53;96842.44;;;9.95;67.24
72587;BME280;60621;49.576;11.024;2023-04-01T02:28:56;96844.31;;;9.98;67.16
72587;BME280;60621;49.576;11.024;2023-04-01T02:29:58;96846.94;;;9.98;66.98
72587;BME280;60621;49.576;11.024;2023-04-01T02:31:00;96836.41;;;9.98;67.39
72587;BME280;60621;49.576;11.024;2023-04-01T02:32:05;96840.88;;;10.05;67.09
72587;BME280;60621;49.576;11.024;2023-04-01T02:33:08;96840.88;;;10.05;67.06
72587;BME280;60621;49.576;11.024;2023-04-01T02:34:10;96842.34;;;10.09;67.21
72587;BME280;60621;49.576;11.024;2023-04-01T02:35:14;96842.69;;;10.15;67.19
72587;BME280;60621;49.576;11.024;2023-04-01T02:36:16;96839.31;;;10.14;66.83
72587;BME280;60621;49.576;11.024;2023-04-01T02:37:18;96844.25;;;10.09;67.41
72587;BME280;60621;49.576;11.024;2023-04-01T02:38:20;96856.69;;;10.05;67.07
72587;BME280;60621;49.576;11.024;2023-04-01T02:39:22;96843.91;;;10.07;67.27
72587;BME280;60621;49.576;11.024;2023-04-01T02:40:24;96849.50;;;10.12;67.29
72587;BME280;60621;49.576;11.024;2023-04-01T02:41:25;96849.16;;;10.07;67.37
72587;BME280;60621;49.576;11.024;2023-04-01T02:42:27;96851.41;;;10.05;67.08
72587;BME280;60621;49.576;11.024;2023-04-01T02:43:28;96854.44;;;10.07;67.06
72587;BME280;60621;49.576;11.024;2023-04-01T02:44:30;96852.94;;;10.02;67.37
72587;BME280;60621;49.576;11.024;2023-04-01T02:45:32;96856.66;;;10.12;67.44
72587;BME280;60621;49.576;11.024;2023-04-01T02:46:34;96850.97;;;10.17;67.18
72587;BME280;60621;49.576;11.024;2023-04-01T02:47:35;96852.06;;;10.19;66.84
72587;BME280;60621;49.576;11.024;2023-04-01T02:48:37;96855.88;;;10.15;67.08
72587;BME280;60621;49.576;11.024;2023-04-01T02:49:38;96854.38;;;10.14;66.98
72587;BME280;60621;49.576;11.024;2023-04-01T02:50:40;96851.00;;;10.13;66.92
72587;BME280;60621;49.576;11.024;2023-04-01T02:51:41;96844.22;;;10.12;66.46
72587;BME280;60621;49.576;11.024;2023-04-01T02:52:42;96851.78;;;10.07;67.01
72587;BME280;60621;49.576;11.024;2023-04-01T02:53:44;96854.03;;;10.08;66.97
72587;BME280;60621;49.576;11.024;2023-04-01T02:54:45;96860.41;;;10.11;66.66
72587;BME280;60621;49.576;11.024;2023-04-01T02:55:47;96863.03;;;10.14;66.58
72587;BME280;60621;49.576;11.024;2023-04-01T02:56:51;96857.03;;;10.10;66.87
72587;BME280;60621;49.576;11.024;2023-04-01T02:57:53;96869.84;;;10.08;66.95
72587;BME280;60621;49.576;11.024;2023-04-01T02:58:55;96861.22;;;10.00;67.07
72587;BME280;60621;49.576;11.024;2023-04-01T02:59:56;96860.06;;;10.01;67.46
72587;BME280;60621;49.576;11.024;2023-04-01T03:00:58;96861.19;;;10.11;67.19
72587;BME280;60621;49.576;11.024;2023-04-01T03:02:00;96869.78;;;10.15;66.86
72587;BME280;60621;49.576;11.024;2023-04-01T03:03:01;96863.41;;;10.16;66.67
72587;BME280;60621;49.576;11.024;2023-04-01T03:04:04;96865.28;;;10.16;66.56
72587;BME280;60621;49.576;11.024;2023-04-01T03:05:06;96865.28;;;10.16;66.43
72587;BME280;60621;49.576;11.024;2023-04-01T03:06:11;96867.91;;;10.16;66.49
72587;BME280;60621;49.576;11.024;2023-04-01T03:07:13;96869.03;;;10.15;66.40
72587;BME280;60621;49.576;11.024;2023-04-01T03:08:14;96869.44;;;10.17;66.69
72587;BME280;60621;49.576;11.024;2023-04-01T03:09:16;96864.56;;;10.12;66.43
72587;BME280;60621;49.576;11.024;2023-04-01T03:10:18;96872.50;;;10.05;66.82
72587;BME280;60621;49.576;11.024;2023-04-01T03:11:19;96872.13;;;10.03;67.02
72587;BME280;60621;49.576;11.024;2023-04-01T03:12:22;96863.09;;;10.04;67.09
72587;BME280;60621;49.576;11.024;2023-04-01T03:13:24;96865.34;;;10.05;67.13
72587;BME280;60621;49.576;11.024;2023-04-01T03:14:25;96866.84;;;10.06;67.01
72587;BME280;60621;49.576;11.024;2023-04-01T03:15:27;96866.84;;;10.06;67.00
72587;BME280;60621;49.576;11.024;2023-04-01T03:16:28;96857.06;;;10.07;66.63
72587;BME280;60621;49.576;11.024;2023-04-01T03:17:31;96865.31;;;10.09;66.87
72587;BME280;60621;49.576;11.024;2023-04-01T03:18:33;96871.72;;;10.11;66.93
72587;BME280;60621;49.576;11.024;2023-04-01T03:19:34;96869.78;;;10.15;66.70
72587;BME280;60621;49.576;11.024;2023-04-01T03:20:36;96863.78;;;10.15;66.81
72587;BME280;60621;49.576;11.024;2023-04-01T03:21:37;96870.53;;;10.16;66.74
72587;BME280;60621;49.576;11.024;2023-04-01T03:22:39;96867.53;;;10.17;66.60
72587;BME280;60621;49.576;11.024;2023-04-01T03:23:43;96872.81;;;10.14;66.98
72587;BME280;60621;49.576;11.024;2023-04-01T03:24:45;96866.44;;;10.11;66.92
72587;BME280;60621;49.576;11.024;2023-04-01T03:25:47;96871.31;;;10.13;66.74
72587;BME280;60621;49.576;11.024;2023-04-01T03:26:49;96866.47;;;10.04;66.81
72587;BME280;60621;49.576;11.024;2023-04-01T03:27:50;96874.38;;;10.04;66.89
72587;BME280;60621;49.576;11.024;2023-04-01T03:28:53;96878.16;;;10.07;67.05
72587;BME280;60621;49.576;11.024;2023-04-01T03:29:54;96877.75;;;10.08;67.12
72587;BME280;60621;49.576;11.024;2023-04-01T03:30:56;96872.88;;;10.07;66.85
72587;BME280;60621;49.576;11.024;2023-04-01T03:31:57;96872.09;;;10.10;67.02
72587;BME280;60621;49.576;11.024;2023-04-01T03:33:00;96868.69;;;10.13;66.80
72587;BME280;60621;49.576;11.024;2023-04-01T03:34:02;96877.34;;;10.13;66.61
72587;BME280;60621;49.576;11.024;2023-04-01T03:35:03;96879.22;;;10.13;66.89
72587;BME280;60621;49.576;11.024;2023-04-01T03:36:06;96878.84;;;10.11;67.02
72587;BME280;60621;49.576;11.024;2023-04-01T03:37:08;96869.47;;;10.06;66.95
72587;BME280;60621;49.576;11.024;2023-04-01T03:38:09;96878.88;;;10.07;67.31
72587;BME280;60621;49.576;11.024;2023-04-01T03:39:11;96886.38;;;10.12;66.51
72587;BME280;60621;49.576;11.024;2023-04-01T03:40:13;96878.09;;;10.10;66.92
72587;BME280;60621;49.576;11.024;2023-04-01T03:41:16;96886.00;;;10.14;67.07
72587;BME280;60621;49.576;11.024;2023-04-01T03:42:18;96883.41;;;10.07;66.90
72587;BME280;60621;49.576;11.024;2023-04-01T03:43:19;96878.56;;;9.98;67.11
72587;BME280;60621;49.576;11.024;2023-04-01T03:44:21;96875.94;;;9.94;67.46
72587;BME280;60621;49.576;11.024;2023-04-01T03:45:23;96881.94;;;9.95;67.36
72587;BME280;60621;49.576;11.024;2023-04-01T03:46:24;96878.22;;;9.85;66.99
72587;BME280;60621;49.576;11.024;2023-04-01T03:47:26;96880.47;;;9.94;67.24
72587;BME280;60621;49.576;11.024;2023-04-01T03:48:27;96885.31;;;9.99;67.66
72587;BME280;60621;49.576;11.024;2023-04-01T03:49:29;96875.94;;;9.98;67.33
72587;BME280;60621;49.576;11.024;2023-04-01T03:50:31;96877.41;;;9.99;67.51
72587;BME280;60621;49.576;11.024;2023-04-01T03:51:32;96880.03;;;10.03;66.84
72587;BME280;60621;49.576;11.024;2023-04-01T03:52:34;96887.56;;;10.00;66.99
72587;BME280;60621;49.576;11.024;2023-04-01T03:53:36;96887.94;;;10.03;66.77
72587;BME280;60621;49.576;11.024;2023-04-01T03:54:37;96887.53;;;10.08;66.89
72587;BME280;60621;49.576;11.024;2023-04-01T03:55:39;96878.84;;;10.11;66.88
72587;BME280;60621;49.576;11.024;2023-04-01T03:56:41;96892.81;;;10.11;67.01
72587;BME280;60621;49.576;11.024;2023-04-01T03:57:42;96884.50;;;10.09;66.80
72587;BME280;60621;49.576;11.024;2023-04-01T03:58:44;96892.81;;;10.11;67.00
72587;BME280;60621;49.576;11.024;2023-04-01T03:59:45;96892.00;;;10.14;66.82
72587;BME280;60621;49.576;11.024;2023-04-01T04:00:46;96886.75;;;10.11;66.58
72587;BME280;60621;49.576;11.024;2023-04-01T04:01:48;96890.53;;;10.10;66.57
72587;BME280;60621;49.576;11.024;2023-04-01T04:02:49;96895.41;;;10.15;66.36
72587;BME280;60621;49.576;11.024;2023-04-01T04:03:51;96890.94;;;10.08;66.02
72587;BME280;60621;49.576;11.024;2023-04-01T04:04:53;96884.91;;;10.08;65.93
72587;BME280;60621;49.576;11.024;2023-04-01T04:05:55;96893.94;;;10.07;66.47
72587;BME280;60621;49.576;11.024;2023-04-01T04:06:57;96890.59;;;9.95;66.50
72587;BME280;60621;49.576;11.024;2023-04-01T04:07:59;96899.63;;;9.98;66.43
72587;BME280;60621;49.576;11.024;2023-04-01T04:09:01;96895.50;;;9.97;66.19
72587;BME280;60621;49.576;11.024;2023-04-01T04:10:03;96890.22;;;9.97;66.66
72587;BME280;60621;49.576;11.024;2023-04-01T04:11:04;96897.00;;;9.98;66.04
72587;BME280;60621;49.576;11.024;2023-04-01T04:12:06;96896.25;;;9.97;66.66
72587;BME280;60621;49.576;11.024;2023-04-01T04:13:07;96893.22;;;9.95;66.59
72587;BME280;60621;49.576;11.024;2023-04-01T04:14:09;96892.50;;;9.95;66.66
72587;BME280;60621;49.576;11.024;2023-04-01T04:15:11;96895.13;;;9.95;66.73
72587;BME280;60621;49.576;11.024;2023-04-01T04:16:14;96892.88;;;9.93;66.68
72587;BME280;60621;49.576;11.024;2023-04-01T04:17:16;96896.63;;;9.96;66.74
72587;BME280;60621;49.576;11.024;2023-04-01T04:18:17;96901.47;;;10.01;66.60
72587;BME280;60621;49.576;11.024;2023-04-01T04:19:19;96898.09;;;10.08;66.72
72587;BME280;60621;49.576;11.024;2023-04-01T04:20:20;96895.03;;;10.13;66.17
72587;BME280;60621;49.576;11.024;2023-04-01T04:21:22;96898.44;;;10.10;66.38
72587;BME280;60621;49.576;11.024;2023-04-01T04:22:24;96894.72;;;10.04;66.49
72587;BME280;60621;49.576;11.024;2023-04-01T04:23:25;96897.34;;;10.07;66.62
72587;BME280;60621;49.576;11.024;2023-04-01T04:24:27;96894.31;;;10.05;66.33
72587;BME280;60621;49.576;11.024;2023-04-01T04:25:28;96894.31;;;10.01;66.27
72587;BME280;60621;49.576;11.024;2023-04-01T04:26:30;96898.44;;;10.06;66.45
72587;BME280;60621;49.576;11.024;2023-04-01T04:27:33;96899.22;;;10.07;66.23
72587;BME280;60621;49.576;11.024;2023-04-01T04:28:34;96901.53;;;9.97;66.25
72587;BME280;60621;49.576;11.024;2023-04-01T04:29:36;96895.47;;;10.00;66.31
72587;BME280;60621;49.576;11.024;2023-04-01T04:30:37;96897.75;;;10.02;66.45
72587;BME280;60621;49.576;11.024;2023-04-01T04:31:39;96891.69;;;10.01;66.32
72587;BME280;60621;49.576;11.024;2023-04-01T04:32:41;96901.13;;;10.03;65.86
72587;BME280;60621;49.576;11.024;2023-04-01T04:33:43;96896.28;;;9.87;66.68
72587;BME280;60621;49.576;11.024;2023-04-01T04:34:44;96897.03;;;9.87;66.77
72587;BME280;60621;49.576;11.024;2023-04-01T04:35:46;96899.66;;;9.87;66.31
72587;BME280;60621;49.576;11.024;2023-04-01T04:36:48;96899.31;;;9.82;66.67
72587;BME280;60621;49.576;11.024;2023-04-01T04:37:50;96897.06;;;9.77;67.38
72587;BME280;60621;49.576;11.024;2023-04-01T04:38:51;96901.94;;;9.85;67.01
72587;BME280;60621;49.576;11.024;2023-04-01T04:39:53;96905.34;;;9.79;66.50
72587;BME280;60621;49.576;11.024;2023-04-01T04:40:55;96900.09;;;9.79;66.93
72587;BME280;60621;49.576;11.024;2023-04-01T04:41:56;96900.09;;;9.79;66.90
72587;BME280;60621;49.576;11.024;2023-04-01T04:42:58;96894.44;;;9.80;66.70
72587;BME280;60621;49.576;11.024;2023-04-01T04:43:59;96903.81;;;9.85;66.82
72587;BME280;60621;49.576;11.024;2023-04-01T04:45:01;96903.06;;;9.88;66.47
72587;BME280;60621;49.576;11.024;2023-04-01T04:46:10;96901.53;;;9.94;66.29
72587;BME280;60621;49.576;11.024;2023-04-01T04:47:12;96905.66;;;9.95;66.38
72587;BME280;60621;49.576;11.024;2023-04-01T04:48:15;96895.88;;;9.95;66.87
72587;BME280;60621;49.576;11.024;2023-04-01T04:49:22;96900.78;;;9.90;66.77
72587;BME280;60621;49.576;11.024;2023-04-01T04:50:24;96903.06;;;9.88;67.22
72587;BME280;60621;49.576;11.024;2023-04-01T04:51:26;96895.16;;;9.88;67.87
72587;BME280;60621;49.576;11.024;2023-04-01T04:52:28;96902.69;;;9.82;67.43
72587;BME280;60621;49.576;11.024;2023-04-01T04:53:30;96908.00;;;9.75;68.01
72587;BME280;60621;49.576;11.024;2023-04-01T04:54:31;96899.00;;;9.62;68.17
72587;BME280;60621;49.576;11.024;2023-04-01T04:55:32;96905.81;;;9.59;68.54
72587;BME280;60621;49.576;11.024;2023-04-01T04:56:34;96905.41;;;9.61;68.02
72587;BME280;60621;49.576;11.024;2023-04-01T04:57:37;96909.94;;;9.60;68.67
72587;BME280;60621;49.576;11.024;2023-04-01T04:58:39;96905.41;;;9.64;68.88
72587;BME280;60621;49.576;11.024;2023-04-01T04:59:40;96907.66;;;9.69;68.64
72587;BME280;60621;49.576;11.024;2023-04-01T05:00:42;96908.38;;;9.73;68.14
72587;BME280;60621;49.576;11.024;2023-04-01T05:01:44;96910.63;;;9.75;68.17
72587;BME280;60621;49.576;11.024;2023-04-01T05:02:46;96899.75;;;9.62;68.16
72587;BME280;60621;49.576;11.024;2023-04-01T05:03:48;96902.78;;;9.54;68.72
72587;BME280;60621;49.576;11.024;2023-04-01T05:04:49;96892.28;;;9.50;68.97
72587;BME280;60621;49.576;11.024;2023-04-01T05:05:53;96902.78;;;9.57;68.80
72587;BME280;60621;49.576;11.024;2023-04-01T05:06:54;96907.69;;;9.48;68.35
72587;BME280;60621;49.576;11.024;2023-04-01T05:07:56;96902.78;;;9.54;68.40
72587;BME280;60621;49.576;11.024;2023-04-01T05:08:57;96903.13;;;9.66;68.50
72587;BME280;60621;49.576;11.024;2023-04-01T05:09:59;96890.00;;;9.59;68.28
72587;BME280;60621;49.576;11.024;2023-04-01T05:11:02;96896.38;;;9.69;68.29
72587;BME280;60621;49.576;11.024;2023-04-01T05:12:03;96902.03;;;9.64;67.83
72587;BME280;60621;49.576;11.024;2023-04-01T05:13:05;96899.41;;;9.64;68.35
72587;BME280;60621;49.576;11.024;2023-04-01T05:14:17;96897.50;;;9.61;68.44
72587;BME280;60621;49.576;11.024;2023-04-01T05:15:19;96897.13;;;9.62;68.55
72587;BME280;60621;49.576;11.024;2023-04-01T05:16:20;96896.75;;;9.64;68.32
72587;BME280;60621;49.576;11.024;2023-04-01T05:17:22;96907.66;;;9.69;68.33
72587;BME280;60621;49.576;11.024;2023-04-01T05:18:24;96909.53;;;9.69;67.99
72587;BME280;60621;49.576;11.024;2023-04-01T05:19:26;96898.63;;;9.63;68.19
72587;BME280;60621;49.576;11.024;2023-04-01T05:20:28;96899.72;;;9.73;68.15
72587;BME280;60621;49.576;11.024;2023-04-01T05:21:29;96905.75;;;9.73;67.64
72587;BME280;60621;49.576;11.024;2023-04-01T05:22:31;96901.63;;;9.62;68.19
72587;BME280;60621;49.576;11.024;2023-04-01T05:23:32;96900.88;;;9.65;68.23
72587;BME280;60621;49.576;11.024;2023-04-01T05:24:34;96901.25;;;9.63;68.53
72587;BME280;60621;49.576;11.024;2023-04-01T05:25:37;96897.50;;;9.61;68.74
72587;BME280;60621;49.576;11.024;2023-04-01T05:26:39;96903.16;;;9.56;68.61
72587;BME280;60621;49.576;11.024;2023-04-01T05:27:40;96899.75;;;9.66;68.78
72587;BME280;60621;49.576;11.024;2023-04-01T05:28:42;96902.00;;;9.67;68.35
72587;BME280;60621;49.576;11.024;2023-04-01T05:29:44;96900.53;;;9.52;68.82
72587;BME280;60621;49.576;11.024;2023-04-01T05:30:45;96908.03;;;9.57;68.88
72587;BME280;60621;49.576;11.024;2023-04-01T05:31:47;96900.91;;;9.54;69.08
72587;BME280;60621;49.576;11.024;2023-04-01T05:32:48;96907.31;;;9.53;69.22
72587;BME280;60621;49.576;11.024;2023-04-01T05:33:50;96898.31;;;9.43;69.32
72587;BME280;60621;49.576;11.024;2023-04-01T05:34:53;96900.19;;;9.39;69.66
72587;BME280;60621;49.576;11.024;2023-04-01T05:35:55;96900.19;;;9.39;69.82
72587;BME280;60621;49.576;11.024;2023-04-01T05:36:56;96906.22;;;9.36;69.87
72587;BME280;60621;49.576;11.024;2023-04-01T05:37:58;96903.97;;;9.31;70.52
72587;BME280;60621;49.576;11.024;2023-04-01T05:38:59;96909.59;;;9.37;70.05
72587;BME280;60621;49.576;11.024;2023-04-01T05:40:02;96905.44;;;9.50;69.86
72587;BME280;60621;49.576;11.024;2023-04-01T05:41:04;96907.31;;;9.57;69.54
72587;BME280;60621;49.576;11.024;2023-04-01T05:42:06;96911.06;;;9.59;69.61
72587;BME280;60621;49.576;11.024;2023-04-01T05:43:08;96899.78;;;9.48;69.58
72587;BME280;60621;49.576;11.024;2023-04-01T05:44:11;96906.19;;;9.47;69.65
72587;BME280;60621;49.576;11.024;2023-04-01T05:45:13;96904.31;;;9.51;69.82
72587;BME280;60621;49.576;11.024;2023-04-01T05:46:17;96896.81;;;9.49;69.64
72587;BME280;60621;49.576;11.024;2023-04-01T05:47:18;96902.78;;;9.54;69.92
72587;BME280;60621;49.576;11.024;2023-04-01T05:48:37;96895.63;;;9.58;69.72
72587;BME280;60621;49.576;11.024;2023-04-01T05:49:43;96896.38;;;9.62;69.85
72587;BME280;60621;49.576;11.024;2023-04-01T05:50:45;96890.38;;;9.54;69.47
72587;BME280;60621;49.576;11.024;2023-04-01T05:51:47;96895.63;;;9.61;69.58
72587;BME280;60621;49.576;11.024;2023-04-01T05:52:49;96900.91;;;9.54;69.44
72587;BME280;60621;49.576;11.024;2023-04-01T05:53:51;96898.25;;;9.54;69.74